首页
METAR-TAF:

METAR-TAF

机场 :

萨格勒布, 克罗地亚

萨格勒布机场

纬度: 45-44N, 经度: 016-04E, 海拔: 106米

当前天气观测

该预报发布于10分钟前的00:00 UTC
风速3节,风向,在西南之间变化
温度 -1°C
湿度 86%
气压 1011 hPa
能见度10公里或以上
1500米以下无云,无积雨云

METAR: LDZA 180000Z 19003KT 090V220 CAVOK M01/M03 Q1011 R99/19//95 NOSIG

时间: 01:10 (00:10 UTC)

预报

该预报发布于45分钟前的23:25 UTC
预报有效从18日的 00点(UTC)到 19日的 00点(UTC)
风速6节,风向西转西南
能见度10公里或以上
散云层高于3000英尺
成为
从 18日的 10点(UTC)到 18日的 12点(UTC)
风速10节,风向西南
几率 30% :
短暂存在
从 18日的 12点(UTC)到 18日的 19点(UTC)
风速15节,风向西南,有时为25节阵风

TAF: LDZA 172325Z 1800/1900 25006KT 9999 SCT030 TX10/1813Z TNM03/1805Z BECMG 1810/1812 23010KT PROB30 TEMPO 1812/1819 23015G25KT

超过4000个机场的气象观测和天气预报(METAR&TAF报告)。

可查询的气象台以黄色和红色小点在地图上表示。

将鼠标移到小点上方,可查看气象台名称。

然后点击查看天气观测和预报。

如需切换地图:点击带黑十字的绿色按钮放大地图;点击带横线的绿色按钮缩小地图;或者点击绿色箭头查看邻近地区的地图。


METAR-TAF: